sensor_id;sensor_type;location;lat;lon;timestamp;P1;durP1;ratioP1;P2;durP2;ratioP2
50988;SDS011;37008;52.210;21.112;2023-11-21T00:02:21;39.00;;;24.67;;
50988;SDS011;37008;52.210;21.112;2023-11-21T00:04:48;49.85;;;29.77;;
50988;SDS011;37008;52.210;21.112;2023-11-21T00:07:14;51.72;;;29.08;;
50988;SDS011;37008;52.210;21.112;2023-11-21T00:09:40;42.03;;;22.35;;
50988;SDS011;37008;52.210;21.112;2023-11-21T00:12:06;50.38;;;28.50;;
50988;SDS011;37008;52.210;21.112;2023-11-21T00:14:35;52.92;;;30.98;;
50988;SDS011;37008;52.210;21.112;2023-11-21T00:17:01;46.17;;;26.75;;
50988;SDS011;37008;52.210;21.112;2023-11-21T00:19:27;43.42;;;26.77;;
50988;SDS011;37008;52.210;21.112;2023-11-21T00:21:53;50.42;;;28.42;;
50988;SDS011;37008;52.210;21.112;2023-11-21T00:24:19;48.05;;;27.40;;
50988;SDS011;37008;52.210;21.112;2023-11-21T00:26:44;53.83;;;29.45;;
50988;SDS011;37008;52.210;21.112;2023-11-21T00:29:10;51.45;;;28.02;;
50988;SDS011;37008;52.210;21.112;2023-11-21T00:31:36;54.83;;;30.42;;
50988;SDS011;37008;52.210;21.112;2023-11-21T00:34:04;53.78;;;29.02;;
50988;SDS011;37008;52.210;21.112;2023-11-21T00:36:30;49.20;;;29.88;;
50988;SDS011;37008;52.210;21.112;2023-11-21T00:38:57;50.40;;;30.17;;
50988;SDS011;37008;52.210;21.112;2023-11-21T00:41:23;52.17;;;29.10;;
50988;SDS011;37008;52.210;21.112;2023-11-21T00:43:48;44.00;;;26.92;;
50988;SDS011;37008;52.210;21.112;2023-11-21T00:46:14;46.22;;;28.42;;
50988;SDS011;37008;52.210;21.112;2023-11-21T00:48:40;48.53;;;26.40;;
50988;SDS011;37008;52.210;21.112;2023-11-21T00:51:05;41.10;;;22.70;;
50988;SDS011;37008;52.210;21.112;2023-11-21T00:53:31;43.75;;;26.83;;
50988;SDS011;37008;52.210;21.112;2023-11-21T00:55:57;42.60;;;26.23;;
50988;SDS011;37008;52.210;21.112;2023-11-21T00:58:23;51.97;;;26.67;;
50988;SDS011;37008;52.210;21.112;2023-11-21T01:00:49;44.40;;;27.35;;
50988;SDS011;37008;52.210;21.112;2023-11-21T01:03:15;47.10;;;26.23;;
50988;SDS011;37008;52.210;21.112;2023-11-21T01:05:41;57.95;;;29.30;;
50988;SDS011;37008;52.210;21.112;2023-11-21T01:08:06;56.35;;;29.23;;
50988;SDS011;37008;52.210;21.112;2023-11-21T01:10:32;41.55;;;26.00;;
50988;SDS011;37008;52.210;21.112;2023-11-21T01:12:59;57.60;;;28.77;;
50988;SDS011;37008;52.210;21.112;2023-11-21T01:15:25;54.17;;;29.58;;
50988;SDS011;37008;52.210;21.112;2023-11-21T01:17:54;47.70;;;28.65;;
50988;SDS011;37008;52.210;21.112;2023-11-21T01:20:19;52.95;;;29.60;;
50988;SDS011;37008;52.210;21.112;2023-11-21T01:22:45;50.35;;;28.33;;
50988;SDS011;37008;52.210;21.112;2023-11-21T01:25:13;51.10;;;28.50;;
50988;SDS011;37008;52.210;21.112;2023-11-21T01:27:39;44.60;;;27.08;;
50988;SDS011;37008;52.210;21.112;2023-11-21T01:30:05;49.00;;;26.52;;
50988;SDS011;37008;52.210;21.112;2023-11-21T01:32:32;43.97;;;26.95;;
50988;SDS011;37008;52.210;21.112;2023-11-21T01:34:59;36.40;;;22.75;;
50988;SDS011;37008;52.210;21.112;2023-11-21T01:37:25;48.80;;;25.92;;
50988;SDS011;37008;52.210;21.112;2023-11-21T01:39:53;41.00;;;26.80;;
50988;SDS011;37008;52.210;21.112;2023-11-21T01:42:20;44.97;;;28.10;;
50988;SDS011;37008;52.210;21.112;2023-11-21T01:44:46;44.50;;;27.85;;
50988;SDS011;37008;52.210;21.112;2023-11-21T01:47:11;46.80;;;26.58;;
50988;SDS011;37008;52.210;21.112;2023-11-21T01:49:38;47.78;;;28.55;;
50988;SDS011;37008;52.210;21.112;2023-11-21T01:52:04;48.13;;;29.73;;
50988;SDS011;37008;52.210;21.112;2023-11-21T01:54:31;49.42;;;29.15;;
50988;SDS011;37008;52.210;21.112;2023-11-21T01:56:57;49.70;;;28.98;;
50988;SDS011;37008;52.210;21.112;2023-11-21T01:59:28;48.20;;;28.10;;
50988;SDS011;37008;52.210;21.112;2023-11-21T02:01:59;41.63;;;25.08;;
50988;SDS011;37008;52.210;21.112;2023-11-21T02:04:25;42.80;;;26.90;;
50988;SDS011;37008;52.210;21.112;2023-11-21T02:06:51;44.60;;;29.25;;
50988;SDS011;37008;52.210;21.112;2023-11-21T02:09:16;50.70;;;27.27;;
50988;SDS011;37008;52.210;21.112;2023-11-21T02:11:47;40.03;;;25.30;;
50988;SDS011;37008;52.210;21.112;2023-11-21T02:14:14;42.00;;;25.63;;
50988;SDS011;37008;52.210;21.112;2023-11-21T02:16:40;37.10;;;22.30;;
50988;SDS011;37008;52.210;21.112;2023-11-21T02:19:06;45.33;;;25.67;;
50988;SDS011;37008;52.210;21.112;2023-11-21T02:21:35;42.13;;;26.63;;
50988;SDS011;37008;52.210;21.112;2023-11-21T02:24:01;41.80;;;23.77;;
50988;SDS011;37008;52.210;21.112;2023-11-21T02:26:27;44.45;;;25.90;;
50988;SDS011;37008;52.210;21.112;2023-11-21T02:28:52;46.75;;;27.17;;
50988;SDS011;37008;52.210;21.112;2023-11-21T02:31:18;42.63;;;26.67;;
50988;SDS011;37008;52.210;21.112;2023-11-21T02:33:44;43.35;;;26.52;;
50988;SDS011;37008;52.210;21.112;2023-11-21T02:36:09;39.53;;;24.35;;
50988;SDS011;37008;52.210;21.112;2023-11-21T02:38:35;42.13;;;26.70;;
50988;SDS011;37008;52.210;21.112;2023-11-21T02:41:01;42.47;;;25.70;;
50988;SDS011;37008;52.210;21.112;2023-11-21T02:43:26;37.72;;;24.27;;
50988;SDS011;37008;52.210;21.112;2023-11-21T02:45:52;38.03;;;24.50;;
50988;SDS011;37008;52.210;21.112;2023-11-21T02:48:17;41.53;;;25.70;;
50988;SDS011;37008;52.210;21.112;2023-11-21T02:50:43;40.20;;;25.35;;
50988;SDS011;37008;52.210;21.112;2023-11-21T02:53:09;44.85;;;25.98;;
50988;SDS011;37008;52.210;21.112;2023-11-21T02:55:35;36.90;;;24.23;;
50988;SDS011;37008;52.210;21.112;2023-11-21T02:58:01;37.75;;;23.98;;
50988;SDS011;37008;52.210;21.112;2023-11-21T03:00:29;34.25;;;23.30;;
50988;SDS011;37008;52.210;21.112;2023-11-21T03:02:55;43.20;;;26.10;;
50988;SDS011;37008;52.210;21.112;2023-11-21T03:05:21;45.50;;;26.90;;
50988;SDS011;37008;52.210;21.112;2023-11-21T03:07:47;45.67;;;26.70;;
50988;SDS011;37008;52.210;21.112;2023-11-21T03:10:12;42.58;;;25.50;;
50988;SDS011;37008;52.210;21.112;2023-11-21T03:12:39;44.50;;;27.25;;
50988;SDS011;37008;52.210;21.112;2023-11-21T03:15:05;47.20;;;27.15;;
50988;SDS011;37008;52.210;21.112;2023-11-21T03:17:33;40.30;;;25.20;;
50988;SDS011;37008;52.210;21.112;2023-11-21T03:19:59;45.53;;;27.35;;
50988;SDS011;37008;52.210;21.112;2023-11-21T03:22:25;41.20;;;26.42;;
50988;SDS011;37008;52.210;21.112;2023-11-21T03:24:51;44.50;;;27.27;;
50988;SDS011;37008;52.210;21.112;2023-11-21T03:27:17;40.03;;;23.80;;
50988;SDS011;37008;52.210;21.112;2023-11-21T03:29:43;41.63;;;26.15;;
50988;SDS011;37008;52.210;21.112;2023-11-21T03:32:10;42.30;;;26.23;;
50988;SDS011;37008;52.210;21.112;2023-11-21T03:34:52;39.92;;;25.50;;
50988;SDS011;37008;52.210;21.112;2023-11-21T03:37:21;43.43;;;24.43;;
50988;SDS011;37008;52.210;21.112;2023-11-21T03:39:47;38.70;;;23.90;;
50988;SDS011;37008;52.210;21.112;2023-11-21T03:42:13;44.55;;;25.02;;
50988;SDS011;37008;52.210;21.112;2023-11-21T03:44:39;35.08;;;20.60;;
50988;SDS011;37008;52.210;21.112;2023-11-21T03:47:04;43.90;;;24.15;;
50988;SDS011;37008;52.210;21.112;2023-11-21T03:49:30;40.92;;;23.67;;
50988;SDS011;37008;52.210;21.112;2023-11-21T03:51:56;35.83;;;22.42;;
50988;SDS011;37008;52.210;21.112;2023-11-21T03:54:22;39.88;;;25.40;;
50988;SDS011;37008;52.210;21.112;2023-11-21T03:56:47;41.10;;;24.67;;
50988;SDS011;37008;52.210;21.112;2023-11-21T03:59:13;37.42;;;23.17;;
50988;SDS011;37008;52.210;21.112;2023-11-21T04:01:38;39.53;;;23.75;;
50988;SDS011;37008;52.210;21.112;2023-11-21T04:04:04;33.92;;;22.05;;
50988;SDS011;37008;52.210;21.112;2023-11-21T04:06:33;35.72;;;19.75;;
50988;SDS011;37008;52.210;21.112;2023-11-21T04:08:58;37.85;;;22.95;;
50988;SDS011;37008;52.210;21.112;2023-11-21T04:11:24;36.78;;;22.58;;
50988;SDS011;37008;52.210;21.112;2023-11-21T04:13:50;36.22;;;22.73;;
50988;SDS011;37008;52.210;21.112;2023-11-21T04:16:15;36.83;;;23.35;;
50988;SDS011;37008;52.210;21.112;2023-11-21T04:18:41;38.88;;;23.27;;
50988;SDS011;37008;52.210;21.112;2023-11-21T04:21:07;43.22;;;25.63;;
50988;SDS011;37008;52.210;21.112;2023-11-21T04:23:33;38.28;;;21.63;;
50988;SDS011;37008;52.210;21.112;2023-11-21T04:25:59;40.13;;;24.02;;
50988;SDS011;37008;52.210;21.112;2023-11-21T04:28:27;36.72;;;22.70;;
50988;SDS011;37008;52.210;21.112;2023-11-21T04:30:53;34.05;;;20.58;;
50988;SDS011;37008;52.210;21.112;2023-11-21T04:33:19;38.10;;;22.38;;
50988;SDS011;37008;52.210;21.112;2023-11-21T04:35:44;34.72;;;23.05;;
50988;SDS011;37008;52.210;21.112;2023-11-21T04:38:11;42.70;;;25.30;;
50988;SDS011;37008;52.210;21.112;2023-11-21T04:40:36;41.15;;;22.63;;
50988;SDS011;37008;52.210;21.112;2023-11-21T04:43:02;33.60;;;20.92;;
50988;SDS011;37008;52.210;21.112;2023-11-21T04:45:29;31.13;;;19.60;;
50988;SDS011;37008;52.210;21.112;2023-11-21T04:47:54;32.70;;;21.05;;
50988;SDS011;37008;52.210;21.112;2023-11-21T04:50:21;29.10;;;19.20;;
50988;SDS011;37008;52.210;21.112;2023-11-21T04:52:46;34.65;;;20.50;;
50988;SDS011;37008;52.210;21.112;2023-11-21T04:55:12;29.67;;;17.60;;
50988;SDS011;37008;52.210;21.112;2023-11-21T04:57:38;33.55;;;20.80;;
50988;SDS011;37008;52.210;21.112;2023-11-21T05:00:07;35.72;;;21.10;;
50988;SDS011;37008;52.210;21.112;2023-11-21T05:02:36;29.65;;;17.58;;
50988;SDS011;37008;52.210;21.112;2023-11-21T05:05:03;31.48;;;18.42;;
50988;SDS011;37008;52.210;21.112;2023-11-21T05:07:30;26.92;;;18.38;;
50988;SDS011;37008;52.210;21.112;2023-11-21T05:09:57;32.10;;;20.08;;
50988;SDS011;37008;52.210;21.112;2023-11-21T05:12:23;28.48;;;18.83;;
50988;SDS011;37008;52.210;21.112;2023-11-21T05:14:50;30.00;;;18.52;;
50988;SDS011;37008;52.210;21.112;2023-11-21T05:17:16;33.13;;;19.83;;
50988;SDS011;37008;52.210;21.112;2023-11-21T05:19:42;28.85;;;18.67;;
50988;SDS011;37008;52.210;21.112;2023-11-21T05:22:11;31.23;;;19.58;;
50988;SDS011;37008;52.210;21.112;2023-11-21T05:24:37;31.05;;;20.23;;
50988;SDS011;37008;52.210;21.112;2023-11-21T05:27:04;29.48;;;17.60;;
50988;SDS011;37008;52.210;21.112;2023-11-21T05:29:30;28.85;;;18.15;;
50988;SDS011;37008;52.210;21.112;2023-11-21T05:31:56;29.52;;;17.65;;
50988;SDS011;37008;52.210;21.112;2023-11-21T05:34:21;29.30;;;17.05;;
50988;SDS011;37008;52.210;21.112;2023-11-21T05:36:49;30.95;;;18.52;;
50988;SDS011;37008;52.210;21.112;2023-11-21T05:39:15;29.23;;;16.33;;
50988;SDS011;37008;52.210;21.112;2023-11-21T05:41:42;28.17;;;17.58;;
50988;SDS011;37008;52.210;21.112;2023-11-21T05:44:08;25.98;;;15.35;;
50988;SDS011;37008;52.210;21.112;2023-11-21T05:46:34;25.88;;;17.27;;
50988;SDS011;37008;52.210;21.112;2023-11-21T05:49:00;32.92;;;17.88;;
50988;SDS011;37008;52.210;21.112;2023-11-21T05:51:25;25.02;;;16.02;;
50988;SDS011;37008;52.210;21.112;2023-11-21T05:53:51;25.67;;;15.60;;
50988;SDS011;37008;52.210;21.112;2023-11-21T05:56:16;25.48;;;16.08;;
50988;SDS011;37008;52.210;21.112;2023-11-21T05:58:43;31.17;;;17.60;;
50988;SDS011;37008;52.210;21.112;2023-11-21T06:01:08;23.33;;;16.02;;
50988;SDS011;37008;52.210;21.112;2023-11-21T06:03:37;29.67;;;16.15;;
50988;SDS011;37008;52.210;21.112;2023-11-21T06:06:03;22.35;;;14.02;;
50988;SDS011;37008;52.210;21.112;2023-11-21T06:08:29;24.65;;;16.20;;
50988;SDS011;37008;52.210;21.112;2023-11-21T06:10:55;21.42;;;12.80;;
50988;SDS011;37008;52.210;21.112;2023-11-21T06:13:21;24.17;;;15.35;;
50988;SDS011;37008;52.210;21.112;2023-11-21T06:15:49;23.80;;;15.18;;
50988;SDS011;37008;52.210;21.112;2023-11-21T06:18:18;25.00;;;15.30;;
50988;SDS011;37008;52.210;21.112;2023-11-21T06:20:45;22.17;;;15.13;;
50988;SDS011;37008;52.210;21.112;2023-11-21T06:23:11;24.75;;;15.40;;
50988;SDS011;37008;52.210;21.112;2023-11-21T06:25:36;26.00;;;16.23;;
50988;SDS011;37008;52.210;21.112;2023-11-21T06:28:03;19.98;;;13.50;;
50988;SDS011;37008;52.210;21.112;2023-11-21T06:30:28;24.08;;;15.60;;
50988;SDS011;37008;52.210;21.112;2023-11-21T06:32:59;21.38;;;15.77;;
50988;SDS011;37008;52.210;21.112;2023-11-21T06:35:26;26.90;;;17.60;;
50988;SDS011;37008;52.210;21.112;2023-11-21T06:37:55;27.83;;;16.10;;
50988;SDS011;37008;52.210;21.112;2023-11-21T06:40:21;26.15;;;16.42;;
50988;SDS011;37008;52.210;21.112;2023-11-21T06:42:46;26.38;;;17.65;;
50988;SDS011;37008;52.210;21.112;2023-11-21T06:45:12;24.88;;;16.98;;
50988;SDS011;37008;52.210;21.112;2023-11-21T06:47:38;26.92;;;16.95;;
50988;SDS011;37008;52.210;21.112;2023-11-21T06:50:05;31.23;;;18.20;;
50988;SDS011;37008;52.210;21.112;2023-11-21T06:52:32;24.08;;;14.02;;
50988;SDS011;37008;52.210;21.112;2023-11-21T06:54:57;26.30;;;17.15;;
50988;SDS011;37008;52.210;21.112;2023-11-21T06:57:23;27.88;;;16.92;;
50988;SDS011;37008;52.210;21.112;2023-11-21T06:59:49;32.85;;;19.35;;
50988;SDS011;37008;52.210;21.112;2023-11-21T07:02:17;40.00;;;22.02;;
50988;SDS011;37008;52.210;21.112;2023-11-21T07:04:46;32.67;;;17.73;;
50988;SDS011;37008;52.210;21.112;2023-11-21T07:07:12;35.38;;;20.08;;
50988;SDS011;37008;52.210;21.112;2023-11-21T07:09:38;28.58;;;17.23;;
50988;SDS011;37008;52.210;21.112;2023-11-21T07:12:04;25.00;;;14.52;;
50988;SDS011;37008;52.210;21.112;2023-11-21T07:14:32;35.90;;;19.15;;
50988;SDS011;37008;52.210;21.112;2023-11-21T07:16:58;37.50;;;18.67;;
50988;SDS011;37008;52.210;21.112;2023-11-21T07:19:24;41.38;;;24.80;;
50988;SDS011;37008;52.210;21.112;2023-11-21T07:21:50;39.95;;;21.98;;
50988;SDS011;37008;52.210;21.112;2023-11-21T07:24:16;31.77;;;19.73;;
50988;SDS011;37008;52.210;21.112;2023-11-21T07:26:42;25.23;;;17.63;;
50988;SDS011;37008;52.210;21.112;2023-11-21T07:29:08;29.23;;;18.20;;
50988;SDS011;37008;52.210;21.112;2023-11-21T07:31:34;44.00;;;25.00;;
50988;SDS011;37008;52.210;21.112;2023-11-21T07:33:59;23.92;;;17.00;;
50988;SDS011;37008;52.210;21.112;2023-11-21T07:36:26;38.90;;;24.27;;
50988;SDS011;37008;52.210;21.112;2023-11-21T07:38:52;29.63;;;17.90;;
50988;SDS011;37008;52.210;21.112;2023-11-21T07:41:18;28.92;;;18.63;;
50988;SDS011;37008;52.210;21.112;2023-11-21T07:43:44;52.53;;;28.80;;
50988;SDS011;37008;52.210;21.112;2023-11-21T07:46:11;30.98;;;19.67;;
50988;SDS011;37008;52.210;21.112;2023-11-21T07:48:40;34.67;;;21.48;;
50988;SDS011;37008;52.210;21.112;2023-11-21T07:51:11;31.70;;;20.17;;
50988;SDS011;37008;52.210;21.112;2023-11-21T07:53:38;54.92;;;35.67;;
50988;SDS011;37008;52.210;21.112;2023-11-21T07:56:05;28.52;;;18.88;;
50988;SDS011;37008;52.210;21.112;2023-11-21T07:58:32;42.15;;;28.13;;
50988;SDS011;37008;52.210;21.112;2023-11-21T08:00:59;35.22;;;22.15;;
50988;SDS011;37008;52.210;21.112;2023-11-21T08:03:25;27.30;;;18.30;;
50988;SDS011;37008;52.210;21.112;2023-11-21T08:06:00;29.13;;;19.02;;
50988;SDS011;37008;52.210;21.112;2023-11-21T08:08:28;27.10;;;18.15;;
50988;SDS011;37008;52.210;21.112;2023-11-21T08:10:54;26.10;;;16.55;;
50988;SDS011;37008;52.210;21.112;2023-11-21T08:13:26;27.88;;;17.42;;
50988;SDS011;37008;52.210;21.112;2023-11-21T08:15:55;27.05;;;16.23;;
50988;SDS011;37008;52.210;21.112;2023-11-21T08:18:23;28.05;;;17.77;;
50988;SDS011;37008;52.210;21.112;2023-11-21T08:20:49;24.08;;;17.20;;
50988;SDS011;37008;52.210;21.112;2023-11-21T08:23:15;27.63;;;15.70;;
50988;SDS011;37008;52.210;21.112;2023-11-21T08:25:42;25.95;;;15.57;;
50988;SDS011;37008;52.210;21.112;2023-11-21T08:28:08;24.25;;;16.77;;
50988;SDS011;37008;52.210;21.112;2023-11-21T08:30:34;21.40;;;15.68;;
50988;SDS011;37008;52.210;21.112;2023-11-21T08:33:00;25.08;;;17.55;;
50988;SDS011;37008;52.210;21.112;2023-11-21T08:35:28;27.77;;;18.67;;
50988;SDS011;37008;52.210;21.112;2023-11-21T08:37:53;31.10;;;18.55;;
50988;SDS011;37008;52.210;21.112;2023-11-21T08:40:20;22.80;;;14.07;;
50988;SDS011;37008;52.210;21.112;2023-11-21T08:42:47;27.98;;;18.27;;
50988;SDS011;37008;52.210;21.112;2023-11-21T08:45:13;20.80;;;14.07;;
50988;SDS011;37008;52.210;21.112;2023-11-21T08:47:42;24.42;;;16.60;;
50988;SDS011;37008;52.210;21.112;2023-11-21T08:50:12;25.08;;;16.45;;
50988;SDS011;37008;52.210;21.112;2023-11-21T08:52:38;26.50;;;17.88;;
50988;SDS011;37008;52.210;21.112;2023-11-21T08:55:45;29.73;;;19.42;;
50988;SDS011;37008;52.210;21.112;2023-11-21T08:58:11;27.13;;;17.30;;
50988;SDS011;37008;52.210;21.112;2023-11-21T09:00:37;25.48;;;17.63;;
50988;SDS011;37008;52.210;21.112;2023-11-21T09:03:49;25.25;;;16.73;;
50988;SDS011;37008;52.210;21.112;2023-11-21T09:06:15;26.55;;;16.63;;
50988;SDS011;37008;52.210;21.112;2023-11-21T09:08:55;25.13;;;17.13;;
50988;SDS011;37008;52.210;21.112;2023-11-21T09:11:21;26.88;;;17.63;;
50988;SDS011;37008;52.210;21.112;2023-11-21T09:13:49;25.70;;;16.65;;
50988;SDS011;37008;52.210;21.112;2023-11-21T09:16:16;24.92;;;16.25;;
50988;SDS011;37008;52.210;21.112;2023-11-21T09:18:42;26.52;;;18.02;;
50988;SDS011;37008;52.210;21.112;2023-11-21T09:21:10;25.00;;;16.83;;
50988;SDS011;37008;52.210;21.112;2023-11-21T09:23:39;26.65;;;17.60;;
50988;SDS011;37008;52.210;21.112;2023-11-21T09:26:12;26.85;;;17.55;;
50988;SDS011;37008;52.210;21.112;2023-11-21T09:28:41;29.60;;;17.23;;
50988;SDS011;37008;52.210;21.112;2023-11-21T09:31:11;24.00;;;13.25;;
50988;SDS011;37008;52.210;21.112;2023-11-21T09:33:39;23.63;;;17.08;;
50988;SDS011;37008;52.210;21.112;2023-11-21T09:36:05;20.52;;;13.63;;
50988;SDS011;37008;52.210;21.112;2023-11-21T09:38:31;26.00;;;17.67;;
50988;SDS011;37008;52.210;21.112;2023-11-21T09:40:57;25.15;;;17.02;;
50988;SDS011;37008;52.210;21.112;2023-11-21T09:43:23;24.52;;;16.77;;
50988;SDS011;37008;52.210;21.112;2023-11-21T09:45:56;23.17;;;16.55;;
50988;SDS011;37008;52.210;21.112;2023-11-21T09:48:27;22.58;;;15.30;;
50988;SDS011;37008;52.210;21.112;2023-11-21T09:50:55;25.50;;;17.55;;
50988;SDS011;37008;52.210;21.112;2023-11-21T09:53:21;23.02;;;15.05;;
50988;SDS011;37008;52.210;21.112;2023-11-21T09:55:50;23.73;;;16.63;;
50988;SDS011;37008;52.210;21.112;2023-11-21T09:58:27;20.80;;;14.25;;
50988;SDS011;37008;52.210;21.112;2023-11-21T10:01:23;25.07;;;15.67;;
50988;SDS011;37008;52.210;21.112;2023-11-21T10:03:50;22.27;;;15.23;;
50988;SDS011;37008;52.210;21.112;2023-11-21T10:06:17;22.67;;;14.75;;
50988;SDS011;37008;52.210;21.112;2023-11-21T10:08:43;24.20;;;16.45;;
50988;SDS011;37008;52.210;21.112;2023-11-21T10:11:10;23.75;;;16.45;;
50988;SDS011;37008;52.210;21.112;2023-11-21T10:13:37;27.17;;;15.77;;
50988;SDS011;37008;52.210;21.112;2023-11-21T10:16:04;23.95;;;17.48;;
50988;SDS011;37008;52.210;21.112;2023-11-21T10:18:32;23.75;;;16.52;;
50988;SDS011;37008;52.210;21.112;2023-11-21T10:20:59;19.45;;;11.90;;
50988;SDS011;37008;52.210;21.112;2023-11-21T10:23:25;22.27;;;14.98;;
50988;SDS011;37008;52.210;21.112;2023-11-21T10:25:52;22.05;;;13.85;;
50988;SDS011;37008;52.210;21.112;2023-11-21T10:28:18;21.25;;;14.60;;
50988;SDS011;37008;52.210;21.112;2023-11-21T10:30:44;20.50;;;14.23;;
50988;SDS011;37008;52.210;21.112;2023-11-21T10:33:10;22.98;;;15.02;;
50988;SDS011;37008;52.210;21.112;2023-11-21T10:35:40;21.63;;;14.70;;
50988;SDS011;37008;52.210;21.112;2023-11-21T10:40:41;22.48;;;14.57;;
50988;SDS011;37008;52.210;21.112;2023-11-21T10:43:07;21.25;;;14.43;;
50988;SDS011;37008;52.210;21.112;2023-11-21T10:45:34;19.95;;;14.73;;
50988;SDS011;37008;52.210;21.112;2023-11-21T10:48:04;24.25;;;15.73;;
50988;SDS011;37008;52.210;21.112;2023-11-21T10:50:36;20.98;;;14.48;;
50988;SDS011;37008;52.210;21.112;2023-11-21T10:53:03;19.80;;;13.57;;
50988;SDS011;37008;52.210;21.112;2023-11-21T10:55:29;23.10;;;14.85;;
50988;SDS011;37008;52.210;21.112;2023-11-21T10:57:57;20.05;;;14.68;;
50988;SDS011;37008;52.210;21.112;2023-11-21T11:00:24;20.92;;;14.25;;
50988;SDS011;37008;52.210;21.112;2023-11-21T11:02:52;22.65;;;16.00;;
50988;SDS011;37008;52.210;21.112;2023-11-21T11:05:23;20.58;;;13.55;;
50988;SDS011;37008;52.210;21.112;2023-11-21T11:08:07;23.55;;;15.35;;
50988;SDS011;37008;52.210;21.112;2023-11-21T11:10:37;20.05;;;13.32;;
50988;SDS011;37008;52.210;21.112;2023-11-21T11:13:03;21.63;;;12.55;;
50988;SDS011;37008;52.210;21.112;2023-11-21T11:15:34;23.08;;;14.70;;
50988;SDS011;37008;52.210;21.112;2023-11-21T11:18:02;24.13;;;13.98;;
50988;SDS011;37008;52.210;21.112;2023-11-21T11:20:34;22.00;;;14.23;;
50988;SDS011;37008;52.210;21.112;2023-11-21T11:29:39;26.95;;;17.05;;
50988;SDS011;37008;52.210;21.112;2023-11-21T11:33:25;21.38;;;14.75;;
50988;SDS011;37008;52.210;21.112;2023-11-21T11:37:55;23.73;;;16.77;;
50988;SDS011;37008;52.210;21.112;2023-11-21T11:40:21;26.70;;;18.67;;
50988;SDS011;37008;52.210;21.112;2023-11-21T11:42:58;27.92;;;16.73;;
50988;SDS011;37008;52.210;21.112;2023-11-21T11:45:31;23.73;;;17.08;;
50988;SDS011;37008;52.210;21.112;2023-11-21T11:47:59;26.08;;;16.42;;
50988;SDS011;37008;52.210;21.112;2023-11-21T11:50:26;28.00;;;17.67;;
50988;SDS011;37008;52.210;21.112;2023-11-21T11:52:52;22.25;;;16.92;;
50988;SDS011;37008;52.210;21.112;2023-11-21T11:55:25;27.30;;;17.75;;
50988;SDS011;37008;52.210;21.112;2023-11-21T11:58:36;30.38;;;18.92;;
50988;SDS011;37008;52.210;21.112;2023-11-21T12:01:06;29.40;;;19.35;;
50988;SDS011;37008;52.210;21.112;2023-11-21T12:03:32;30.85;;;23.40;;
50988;SDS011;37008;52.210;21.112;2023-11-21T12:05:58;25.75;;;16.17;;
50988;SDS011;37008;52.210;21.112;2023-11-21T12:08:25;30.55;;;17.25;;
50988;SDS011;37008;52.210;21.112;2023-11-21T12:10:56;29.00;;;16.92;;
50988;SDS011;37008;52.210;21.112;2023-11-21T12:13:23;26.52;;;18.10;;
50988;SDS011;37008;52.210;21.112;2023-11-21T12:15:49;27.70;;;17.55;;
50988;SDS011;37008;52.210;21.112;2023-11-21T12:18:16;26.30;;;17.67;;
50988;SDS011;37008;52.210;21.112;2023-11-21T12:20:53;25.70;;;14.95;;
50988;SDS011;37008;52.210;21.112;2023-11-21T12:23:19;24.92;;;15.15;;
50988;SDS011;37008;52.210;21.112;2023-11-21T12:25:45;20.25;;;12.85;;
50988;SDS011;37008;52.210;21.112;2023-11-21T12:28:11;24.73;;;16.30;;
50988;SDS011;37008;52.210;21.112;2023-11-21T12:30:37;23.50;;;15.45;;
50988;SDS011;37008;52.210;21.112;2023-11-21T12:33:05;22.13;;;15.85;;
50988;SDS011;37008;52.210;21.112;2023-11-21T12:35:33;22.95;;;15.40;;
50988;SDS011;37008;52.210;21.112;2023-11-21T12:38:00;21.98;;;15.75;;
50988;SDS011;37008;52.210;21.112;2023-11-21T12:40:30;25.38;;;17.42;;
50988;SDS011;37008;52.210;21.112;2023-11-21T12:42:56;26.83;;;16.73;;
50988;SDS011;37008;52.210;21.112;2023-11-21T12:45:24;35.03;;;22.83;;
50988;SDS011;37008;52.210;21.112;2023-11-21T12:47:56;22.20;;;15.70;;
50988;SDS011;37008;52.210;21.112;2023-11-21T12:50:24;30.30;;;19.20;;
50988;SDS011;37008;52.210;21.112;2023-11-21T12:53:00;25.17;;;17.77;;
50988;SDS011;37008;52.210;21.112;2023-11-21T12:55:29;25.67;;;17.75;;
50988;SDS011;37008;52.210;21.112;2023-11-21T12:58:02;23.25;;;14.07;;
50988;SDS011;37008;52.210;21.112;2023-11-21T13:00:37;24.85;;;16.35;;
50988;SDS011;37008;52.210;21.112;2023-11-21T13:03:07;23.33;;;16.50;;
50988;SDS011;37008;52.210;21.112;2023-11-21T13:05:34;16.40;;;10.35;;
50988;SDS011;37008;52.210;21.112;2023-11-21T13:08:05;23.85;;;15.73;;
50988;SDS011;37008;52.210;21.112;2023-11-21T13:10:34;19.92;;;12.75;;
50988;SDS011;37008;52.210;21.112;2023-11-21T13:13:10;22.30;;;15.75;;
50988;SDS011;37008;52.210;21.112;2023-11-21T13:15:47;25.95;;;15.90;;
50988;SDS011;37008;52.210;21.112;2023-11-21T13:18:13;25.17;;;16.58;;
50988;SDS011;37008;52.210;21.112;2023-11-21T13:20:40;23.58;;;15.70;;
50988;SDS011;37008;52.210;21.112;2023-11-21T13:23:08;26.95;;;17.33;;
50988;SDS011;37008;52.210;21.112;2023-11-21T13:25:37;22.13;;;14.38;;
50988;SDS011;37008;52.210;21.112;2023-11-21T13:28:06;26.55;;;16.35;;
50988;SDS011;37008;52.210;21.112;2023-11-21T13:30:32;25.50;;;17.73;;
50988;SDS011;37008;52.210;21.112;2023-11-21T13:33:01;25.73;;;17.08;;
50988;SDS011;37008;52.210;21.112;2023-11-21T13:35:41;24.13;;;16.50;;
50988;SDS011;37008;52.210;21.112;2023-11-21T13:38:13;21.75;;;14.93;;
50988;SDS011;37008;52.210;21.112;2023-11-21T13:40:50;20.63;;;14.23;;
50988;SDS011;37008;52.210;21.112;2023-11-21T13:45:54;22.75;;;14.82;;
50988;SDS011;37008;52.210;21.112;2023-11-21T13:48:33;24.38;;;18.13;;
50988;SDS011;37008;52.210;21.112;2023-11-21T13:51:13;28.02;;;17.70;;
50988;SDS011;37008;52.210;21.112;2023-11-21T13:53:42;26.52;;;16.92;;
50988;SDS011;37008;52.210;21.112;2023-11-21T13:56:14;27.10;;;16.67;;
50988;SDS011;37008;52.210;21.112;2023-11-21T13:58:44;29.45;;;17.17;;
50988;SDS011;37008;52.210;21.112;2023-11-21T14:01:19;26.35;;;18.10;;
50988;SDS011;37008;52.210;21.112;2023-11-21T14:04:04;21.63;;;14.25;;
50988;SDS011;37008;52.210;21.112;2023-11-21T14:06:48;25.15;;;16.42;;
50988;SDS011;37008;52.210;21.112;2023-11-21T14:09:39;23.38;;;16.80;;
50988;SDS011;37008;52.210;21.112;2023-11-21T14:12:08;26.83;;;18.27;;
50988;SDS011;37008;52.210;21.112;2023-11-21T14:14:46;23.70;;;15.13;;
50988;SDS011;37008;52.210;21.112;2023-11-21T14:17:12;26.98;;;19.48;;
50988;SDS011;37008;52.210;21.112;2023-11-21T14:19:38;25.60;;;17.33;;
50988;SDS011;37008;52.210;21.112;2023-11-21T14:22:11;29.27;;;18.45;;
50988;SDS011;37008;52.210;21.112;2023-11-21T14:24:37;27.40;;;19.60;;
50988;SDS011;37008;52.210;21.112;2023-11-21T14:27:08;23.10;;;17.23;;
50988;SDS011;37008;52.210;21.112;2023-11-21T14:29:35;31.08;;;21.27;;